Time;durP1;ratioP1;P1;durP2;ratioP2;P2;SDS_P1;SDS_P2;PMS_P1;PMS_P2;Temp;Humidity;BMP_temperature;BMP_pressure;BME280_temperature;BME280_humidity;BME280_pressure;Samples;Min_cycle;Max_cycle;Signal;HPM_P1;HPM_P2
2022/04/09 00:00:55;;;;;;;37.70;26.30;;;;;;;7.97;84.11;94394.02;1649365;87;21069;-83
2022/04/09 00:03:21;;;;;;;24.43;19.17;;;;;;;7.95;84.06;94376.59;1649346;87;21475;-83
2022/04/09 00:05:49;;;;;;;25.15;18.87;;;;;;;7.92;84.01;94380.12;1648875;87;20967;-83
2022/04/09 00:08:17;;;;;;;24.45;19.73;;;;;;;7.88;83.88;94387.52;1649112;87;21026;-83
2022/04/09 00:10:48;;;;;;;23.27;18.07;;;;;;;7.83;84.05;94382.20;1647872;87;21330;-83
2022/04/09 00:13:13;;;;;;;28.65;21.25;;;;;;;7.83;84.19;94371.86;1649379;87;20971;-83
2022/04/09 00:15:39;;;;;;;42.60;26.97;;;;;;;7.79;84.16;94375.86;1631481;87;21034;-83
2022/04/09 00:18:06;;;;;;;31.65;21.17;;;;;;;7.80;84.23;94375.64;1621583;87;21014;-83
2022/04/09 00:20:32;;;;;;;22.40;16.32;;;;;;;7.85;84.10;94380.70;1621613;88;21397;-83
2022/04/09 00:23:00;;;;;;;27.15;20.17;;;;;;;7.83;84.76;94371.36;1620724;87;21172;-83
2022/04/09 00:25:25;;;;;;;23.07;18.12;;;;;;;7.75;84.52;94350.94;1595261;88;21078;-83
2022/04/09 00:27:57;;;;;;;22.52;17.82;;;;;;;7.77;84.50;94357.97;1615275;87;21187;-83
2022/04/09 00:30:23;;;;;;;21.87;18.45;;;;;;;7.82;84.63;94356.06;1639570;87;20993;-83
2022/04/09 00:32:49;;;;;;;24.20;18.35;;;;;;;7.86;84.65;94361.09;1639298;87;20998;-83
2022/04/09 00:35:15;;;;;;;19.45;16.48;;;;;;;7.91;84.81;94350.88;1638355;86;20979;-82
2022/04/09 00:37:45;;;;;;;21.12;16.52;;;;;;;7.88;84.50;94344.06;1639277;87;21094;-82
2022/04/09 00:40:14;;;;;;;26.65;21.30;;;;;;;7.90;84.54;94336.88;1639502;87;21007;-82
2022/04/09 00:42:45;;;;;;;25.05;20.82;;;;;;;7.92;84.62;94334.36;1639771;87;21186;-83
2022/04/09 00:45:11;;;;;;;20.48;16.65;;;;;;;7.98;84.77;94352.13;1624466;87;20964;-83
2022/04/09 00:47:37;;;;;;;27.25;20.90;;;;;;;7.94;84.71;94343.98;1612243;89;20996;-83
2022/04/09 00:50:07;;;;;;;24.82;20.35;;;;;;;7.95;84.74;94343.48;1612179;89;21038;-82
2022/04/09 00:52:40;;;;;;;30.48;25.45;;;;;;;7.71;84.54;94316.19;1612259;89;21150;-82
2022/04/09 00:55:11;;;;;;;30.23;26.52;;;;;;;7.96;84.70;94355.41;1614492;87;21001;-82
2022/04/09 00:57:37;;;;;;;27.02;23.60;;;;;;;7.95;84.64;94352.03;1569457;91;21138;-82
2022/04/09 01:00:11;;;;;;;26.93;22.60;;;;;;;7.97;84.64;94333.71;1593648;90;21040;-82
2022/04/09 01:02:45;;;;;;;24.67;21.82;;;;;;;7.95;84.54;94349.45;1637188;87;20994;-82
2022/04/09 01:05:19;;;;;;;30.35;23.80;;;;;;;7.96;84.55;94345.06;1642752;87;21003;-82
2022/04/09 01:07:41;;;;;;;33.70;27.20;;;;;;;7.98;84.65;94343.08;1640261;87;21078;-82
2022/04/09 01:10:09;;;;;;;30.32;24.92;;;;;;;7.99;84.50;94330.44;1644080;87;20971;-82
2022/04/09 01:12:35;;;;;;;31.42;26.00;;;;;;;8.00;84.73;94328.92;1644040;87;21022;-82
2022/04/09 01:15:06;;;;;;;31.93;25.30;;;;;;;7.98;84.65;94323.18;1644257;87;20963;-82
2022/04/09 01:17:32;;;;;;;30.48;26.52;;;;;;;7.96;84.83;94318.70;1623254;86;21386;-83
2022/04/09 01:19:58;;;;;;;34.73;27.07;;;;;;;7.95;84.73;94327.97;1638485;87;21098;-82
2022/04/09 01:22:23;;;;;;;44.13;33.13;;;;;;;7.91;84.75;94325.02;1639801;87;21102;-82
2022/04/09 01:24:49;;;;;;;35.75;27.05;;;;;;;7.93;84.99;94304.12;1626100;87;21102;-82
2022/04/09 01:27:15;;;;;;;38.83;29.45;;;;;;;7.92;85.01;94315.47;1632503;87;21501;-82
2022/04/09 01:29:43;;;;;;;35.50;28.87;;;;;;;7.96;84.75;94312.73;1631711;87;20983;-82
2022/04/09 01:32:09;;;;;;;37.90;29.90;;;;;;;7.97;84.82;94325.95;1638952;87;21365;-82
2022/04/09 01:34:34;;;;;;;40.60;31.97;;;;;;;8.00;84.89;94332.80;1635459;86;21045;-83
2022/04/09 01:37:00;;;;;;;37.42;30.88;;;;;;;8.04;85.01;94320.22;1622169;87;21073;-82
2022/04/09 01:39:26;;;;;;;38.90;29.37;;;;;;;8.06;85.05;94318.20;1626876;87;20927;-82
2022/04/09 01:41:51;;;;;;;37.38;29.35;;;;;;;8.07;85.00;94302.97;1633704;87;21043;-82
2022/04/09 01:44:17;;;;;;;39.73;30.15;;;;;;;7.99;84.65;94305.36;1638703;87;21509;-82
2022/04/09 01:46:46;;;;;;;39.40;30.43;;;;;;;7.95;84.69;94312.45;1636145;87;21011;-82
2022/04/09 01:49:12;;;;;;;38.58;29.92;;;;;;;7.95;84.62;94301.60;1617956;87;20932;-82
2022/04/09 01:51:38;;;;;;;41.85;31.00;;;;;;;7.95;84.46;94302.11;1612246;89;21129;-83
2022/04/09 01:54:05;;;;;;;41.90;32.33;;;;;;;7.96;84.50;94299.30;1626046;87;21026;-83
2022/04/09 01:56:32;;;;;;;42.05;31.10;;;;;;;7.94;84.44;94308.28;1639821;87;21411;-82
2022/04/09 01:58:57;;;;;;;38.70;31.77;;;;;;;7.95;84.34;94313.24;1637554;87;21023;-81
2022/04/09 02:01:23;;;;;;;38.83;31.15;;;;;;;7.94;84.31;94306.99;1635200;87;21440;-80
2022/04/09 02:03:49;;;;;;;41.02;29.92;;;;;;;7.94;84.37;94314.75;1626153;88;21025;-80
2022/04/09 02:06:15;;;;;;;36.10;28.85;;;;;;;7.88;84.44;94319.00;1644360;87;21033;-81
2022/04/09 02:08:41;;;;;;;38.20;29.07;;;;;;;7.89;84.55;94315.91;1637419;87;21699;-80
2022/04/09 02:11:07;;;;;;;35.92;28.02;;;;;;;7.84;84.68;94297.17;1639910;87;20978;-81
2022/04/09 02:13:33;;;;;;;39.33;29.40;;;;;;;7.82;84.75;94287.05;1643074;87;20966;-80
2022/04/09 02:15:59;;;;;;;36.42;29.63;;;;;;;7.80;84.79;94270.14;1644048;87;22179;-80
2022/04/09 02:18:25;;;;;;;38.53;29.05;;;;;;;7.80;84.80;94263.17;1639553;87;21398;-80
2022/04/09 02:20:53;;;;;;;40.28;28.50;;;;;;;7.79;84.61;94256.42;1616455;89;21034;-80
2022/04/09 02:23:21;;;;;;;37.93;26.70;;;;;;;7.77;84.47;94251.98;1633600;87;21002;-80
2022/04/09 02:25:47;;;;;;;37.42;28.55;;;;;;;7.75;84.44;94243.66;1644011;87;21063;-80
2022/04/09 02:28:13;;;;;;;37.23;27.93;;;;;;;7.77;84.58;94240.34;1644151;87;21007;-80
2022/04/09 02:30:38;;;;;;;35.40;26.30;;;;;;;7.76;84.53;94232.30;1644071;87;21078;-80
2022/04/09 02:33:05;;;;;;;37.35;28.30;;;;;;;7.50;84.59;94196.44;1613178;89;21472;-80
2022/04/09 02:35:33;;;;;;;42.67;31.55;;;;;;;7.71;84.51;94234.75;1613161;89;21114;-82
2022/04/09 02:37:59;;;;;;;43.65;30.85;;;;;;;7.68;84.67;94217.10;1631018;87;21035;-82
2022/04/09 02:40:25;;;;;;;39.20;28.90;;;;;;;7.66;84.79;94215.23;1644115;87;21421;-82
2022/04/09 02:42:55;;;;;;;32.55;23.02;;;;;;;7.60;84.97;94204.45;1645122;87;21043;-81
2022/04/09 02:45:21;;;;;;;8.13;5.17;;;;;;;7.54;85.16;94194.98;1644131;87;21082;-82
2022/04/09 02:47:46;;;;;;;5.53;4.03;;;;;;;7.57;85.94;94195.84;1644004;87;20994;-82
2022/04/09 02:50:12;;;;;;;2.90;2.20;;;;;;;7.68;86.42;94195.13;1644143;87;21056;-82
2022/04/09 02:52:40;;;;;;;2.92;1.72;;;;;;;7.77;86.79;94186.05;1644012;87;21003;-82
2022/04/09 02:55:12;;;;;;;3.33;1.92;;;;;;;7.93;86.62;94192.93;1644173;87;21078;-82
2022/04/09 02:57:40;;;;;;;3.05;1.67;;;;;;;8.02;86.59;94181.29;1638643;87;21062;-82
2022/04/09 03:00:11;;;;;;;2.35;1.67;;;;;;;8.12;86.74;94162.13;1627363;87;21054;-82
2022/04/09 03:02:38;;;;;;;1.98;1.42;;;;;;;8.19;86.25;94153.80;1643900;87;21043;-83
2022/04/09 03:05:05;;;;;;;1.25;0.90;;;;;;;8.25;85.93;94153.41;1640316;87;21066;-82
2022/04/09 03:07:31;;;;;;;1.62;1.30;;;;;;;8.30;85.47;94149.67;1639920;87;21026;-82
2022/04/09 03:09:56;;;;;;;1.80;1.27;;;;;;;8.39;85.32;94153.53;1618836;86;21454;-81
2022/04/09 03:12:22;;;;;;;2.40;1.22;;;;;;;8.46;85.22;94146.95;1643509;87;21011;-81
2022/04/09 03:14:50;;;;;;;1.15;0.93;;;;;;;8.51;85.21;94136.73;1620649;87;21018;-82
2022/04/09 03:17:18;;;;;;;1.55;0.95;;;;;;;8.59;84.92;94131.22;1620007;87;21451;-82
2022/04/09 03:19:43;;;;;;;2.30;0.93;;;;;;;8.66;84.74;94124.14;1616049;87;21051;-82
2022/04/09 03:22:09;;;;;;;1.72;1.05;;;;;;;8.72;84.74;94120.14;1643293;87;21034;-82
2022/04/09 03:24:35;;;;;;;1.27;0.93;;;;;;;8.79;84.38;94121.34;1629046;87;21540;-82
2022/04/09 03:27:01;;;;;;;2.25;0.85;;;;;;;8.84;84.09;94110.30;1630560;87;20983;-82
2022/04/09 03:29:27;;;;;;;1.72;1.02;;;;;;;8.89;83.90;94120.25;1636089;87;21340;-82
2022/04/09 03:32:10;;;;;;;;;;;;;;;;;;;;;
2022/04/09 03:34:35;;;;;;;1.60;1.02;;;;;;;8.98;83.40;94102.08;1614225;87;21007;-82
2022/04/09 03:37:16;;;;;;;1.42;1.02;;;;;;;9.03;83.46;94096.20;1643781;87;21508;-82
2022/04/09 03:39:43;;;;;;;1.77;0.70;;;;;;;9.09;83.26;94091.91;1617174;87;21129;-82
2022/04/09 03:42:08;;;;;;;1.45;0.90;;;;;;;9.14;82.75;94094.63;1638998;87;21023;-82
2022/04/09 03:44:44;;;;;;;0.85;0.82;;;;;;;9.21;82.59;94088.28;1634184;87;21357;-82
2022/04/09 03:47:17;;;;;;;1.20;0.90;;;;;;;9.26;82.59;94088.89;1633682;87;21090;-82
2022/04/09 03:49:47;;;;;;;1.17;1.00;;;;;;;9.31;82.00;94087.20;1644993;87;21046;-82
2022/04/09 03:52:15;;;;;;;1.35;0.90;;;;;;;9.40;81.35;94075.16;1644789;87;20990;-82
2022/04/09 03:54:44;;;;;;;1.30;0.93;;;;;;;9.50;80.94;94067.59;1643850;86;21054;-81
2022/04/09 03:57:14;;;;;;;1.47;0.70;;;;;;;9.56;81.37;94075.73;1642358;87;21007;-82
2022/04/09 03:59:55;;;;;;;1.32;0.78;;;;;;;9.58;79.63;94063.32;1643039;86;21006;-82
2022/04/09 04:02:23;;;;;;;1.57;0.80;;;;;;;9.65;80.14;94076.16;1644765;86;21073;-82
2022/04/09 04:04:50;;;;;;;;;;;;;;;9.70;79.00;94072.36;1646619;87;21034;-81
2022/04/09 04:07:23;;;;;;;1.30;0.80;;;;;;;9.76;79.64;94072.23;1640028;86;20122;-81
2022/04/09 04:09:53;;;;;;;1.00;0.80;;;;;;;9.74;79.38;94079.94;1643744;87;21079;-81
2022/04/09 04:12:24;;;;;;;1.70;1.00;;;;;;;9.74;79.20;94077.34;1643760;86;21014;-81
2022/04/09 04:14:58;;;;;;;0.62;0.60;;;;;;;9.75;78.86;94070.63;1644723;87;21003;-81
2022/04/09 04:17:25;;;;;;;0.98;0.70;;;;;;;9.80;79.08;94063.47;1634411;87;21073;-81
2022/04/09 04:19:51;;;;;;;0.70;0.57;;;;;;;9.80;78.27;94088.11;1635318;87;21070;-80
2022/04/09 04:22:17;;;;;;;0.82;0.72;;;;;;;9.85;78.05;94085.09;1642527;87;21357;-79
2022/04/09 04:24:42;;;;;;;1.10;0.80;;;;;;;9.88;77.45;94078.13;1642139;87;20983;-79
2022/04/09 04:27:08;;;;;;;1.42;0.60;;;;;;;9.91;77.78;94069.88;1641198;87;21370;-79
2022/04/09 04:29:34;;;;;;;1.65;1.02;;;;;;;9.95;77.43;94071.52;1641820;87;21038;-79
2022/04/09 04:32:00;;;;;;;1.22;0.95;;;;;;;10.01;77.19;94064.59;1640551;86;20991;-79
2022/04/09 04:34:26;;;;;;;1.05;0.80;;;;;;;10.04;76.93;94071.40;1640749;87;21449;-79
2022/04/09 04:36:51;;;;;;;1.75;1.10;;;;;;;10.07;76.59;94068.33;1642747;87;21027;-79
2022/04/09 04:39:17;;;;;;;1.20;0.98;;;;;;;10.09;76.31;94072.80;1626889;87;20975;-79
2022/04/09 04:41:43;;;;;;;2.20;1.20;;;;;;;10.12;76.84;94067.65;1641715;87;21481;-79
2022/04/09 04:44:10;;;;;;;2.20;1.00;;;;;;;10.14;76.92;94073.38;1643166;87;21052;-79
2022/04/09 04:46:36;;;;;;;1.10;0.80;;;;;;;10.14;76.79;94074.69;1642546;87;21046;-79
2022/04/09 04:49:03;;;;;;;2.22;1.00;;;;;;;10.12;76.73;94091.78;1617725;87;20990;-79
2022/04/09 04:51:28;;;;;;;1.15;0.90;;;;;;;10.11;76.64;94105.78;1640933;87;20999;-79
2022/04/09 04:53:54;;;;;;;11.60;9.25;;;;;;;10.11;76.77;94137.44;1640799;87;21062;-79
2022/04/09 04:56:23;;;;;;;26.60;21.23;;;;;;;9.95;76.74;94153.75;1633925;87;21006;-79
2022/04/09 04:58:50;;;;;;;23.55;17.82;;;;;;;9.61;75.86;94158.81;1635862;86;21083;-79
2022/04/09 05:01:15;;;;;;;21.42;16.37;;;;;;;9.21;76.61;94196.33;1635055;87;20991;-79
2022/04/09 05:03:41;;;;;;;23.18;17.95;;;;;;;8.89;77.53;94212.19;1644466;87;21409;-80
2022/04/09 05:06:07;;;;;;;20.75;16.17;;;;;;;8.63;77.85;94253.53;1644435;87;20990;-80
2022/04/09 05:08:33;;;;;;;18.23;14.93;;;;;;;8.39;77.90;94222.10;1644497;87;21113;-80
2022/04/09 05:10:58;;;;;;;16.35;12.80;;;;;;;8.21;78.29;94230.67;1644664;87;20948;-80
2022/04/09 05:13:24;;;;;;;11.93;10.55;;;;;;;8.05;78.60;94217.05;1638357;87;21003;-80
2022/04/09 05:15:50;;;;;;;8.80;7.35;;;;;;;7.90;78.55;94235.53;1636959;87;20978;-80
2022/04/09 05:18:16;;;;;;;11.60;10.15;;;;;;;7.61;78.88;94262.89;1642244;87;21004;-80
2022/04/09 05:20:41;;;;;;;12.15;9.80;;;;;;;7.27;79.17;94304.25;1644521;87;21353;-80
2022/04/09 05:23:07;;;;;;;9.85;8.73;;;;;;;7.10;80.20;94294.95;1635445;87;21018;-79
2022/04/09 05:25:33;;;;;;;11.00;9.68;;;;;;;7.01;80.67;94294.94;1616775;87;21029;-79
2022/04/09 05:28:07;;;;;;;12.07;10.03;;;;;;;7.00;80.74;94334.67;1645035;87;21042;-79
2022/04/09 05:30:35;;;;;;;10.15;8.20;;;;;;;7.01;81.02;94344.00;1654034;87;21421;-79
2022/04/09 05:33:01;;;;;;;11.28;9.58;;;;;;;6.93;80.68;94341.16;1654259;87;21005;-79
2022/04/09 05:35:27;;;;;;;12.75;10.30;;;;;;;6.77;80.83;94373.12;1650902;87;21436;-79
2022/04/09 05:37:53;;;;;;;10.55;9.50;;;;;;;6.71;81.82;94396.69;1641073;87;21046;-79
2022/04/09 05:40:19;;;;;;;12.65;9.63;;;;;;;6.62;82.03;94432.74;1644820;87;21034;-79
2022/04/09 05:42:45;;;;;;;10.63;8.88;;;;;;;6.55;82.34;94459.87;1645539;87;21030;-79
2022/04/09 05:45:11;;;;;;;10.13;8.75;;;;;;;6.46;82.67;94488.66;1635891;85;21477;-79
2022/04/09 05:47:45;;;;;;;8.63;6.65;;;;;;;6.38;83.49;94501.30;1645208;87;20965;-79
2022/04/09 05:50:11;;;;;;;6.75;5.65;;;;;;;6.30;83.10;94522.13;1649081;87;21511;-78
2022/04/09 05:52:37;;;;;;;5.83;4.92;;;;;;;6.06;82.70;94522.25;1622287;87;20994;-79
2022/04/09 05:55:04;;;;;;;6.95;4.83;;;;;;;5.87;82.40;94535.91;1622882;87;20990;-79
2022/04/09 05:57:31;;;;;;;5.97;4.60;;;;;;;5.74;82.30;94543.13;1627793;87;21415;-79
2022/04/09 05:59:57;;;;;;;5.60;4.22;;;;;;;5.70;82.35;94556.11;1624391;87;21006;-79
2022/04/09 06:02:23;;;;;;;3.55;2.40;;;;;;;5.63;82.25;94571.54;1627946;87;21026;-79
2022/04/09 06:04:49;;;;;;;2.87;2.00;;;;;;;5.50;81.99;94586.16;1623240;87;20987;-79
2022/04/09 06:07:15;;;;;;;5.67;4.65;;;;;;;5.23;80.60;94611.84;1622990;87;21109;-79
2022/04/09 06:09:41;;;;;;;3.10;2.80;;;;;;;5.06;81.30;94615.23;1625818;87;21059;-79
2022/04/09 06:12:08;;;;;;;3.55;2.10;;;;;;;4.90;80.90;94627.61;1620542;87;21057;-80
2022/04/09 06:14:35;;;;;;;3.12;1.77;;;;;;;4.69;80.55;94623.30;1623312;87;21042;-80
2022/04/09 06:17:00;;;;;;;2.55;1.82;;;;;;;4.48;79.65;94624.95;1628000;87;21030;-80
2022/04/09 06:19:27;;;;;;;1.90;1.60;;;;;;;4.30;79.90;94653.39;1623147;87;21372;-80
2022/04/09 06:21:53;;;;;;;2.10;1.90;;;;;;;3.91;79.65;94638.72;1629941;87;21030;-79
2022/04/09 06:24:19;;;;;;;2.20;1.50;;;;;;;3.92;79.53;94657.50;1627943;87;21002;-79
2022/04/09 06:26:45;;;;;;;2.05;1.75;;;;;;;3.76;79.51;94662.86;1632026;87;21506;-79
2022/04/09 06:29:11;;;;;;;2.72;2.33;;;;;;;3.57;79.90;94680.41;1613781;87;21042;-79
2022/04/09 06:31:36;;;;;;;3.12;2.77;;;;;;;3.35;80.15;94694.17;1630627;87;21012;-79
2022/04/09 06:34:02;;;;;;;3.00;2.40;;;;;;;3.17;80.80;94695.82;1625679;87;21043;-80
2022/04/09 06:36:28;;;;;;;3.25;2.85;;;;;;;3.05;81.25;94708.77;1614229;87;21079;-80
2022/04/09 06:38:53;;;;;;;4.03;2.90;;;;;;;3.00;81.77;94718.77;1621582;87;21397;-80
2022/04/09 06:41:19;;;;;;;3.30;3.00;;;;;;;3.02;82.12;94727.09;1630430;87;21449;-79
2022/04/09 06:43:46;;;;;;;3.37;3.08;;;;;;;3.07;82.40;94733.77;1616623;87;21110;-79
2022/04/09 06:46:12;;;;;;;3.10;2.70;;;;;;;3.18;82.63;94746.66;1624615;87;21006;-79
2022/04/09 06:48:38;;;;;;;3.27;2.67;;;;;;;3.22;82.70;94758.96;1622156;87;21346;-79
2022/04/09 06:51:03;;;;;;;3.52;3.22;;;;;;;3.25;82.86;94761.20;1637589;87;20940;-80
2022/04/09 06:53:29;;;;;;;2.50;2.30;;;;;;;3.24;82.92;94774.19;1637421;87;20948;-79
2022/04/09 06:55:55;;;;;;;3.00;2.70;;;;;;;3.15;83.28;94784.23;1632432;87;21353;-80
2022/04/09 06:58:21;;;;;;;4.12;3.33;;;;;;;3.04;83.05;94809.02;1632151;87;21007;-80
2022/04/09 07:00:47;;;;;;;4.10;3.70;;;;;;;2.97;83.20;94817.91;1628038;87;20990;-81
2022/04/09 07:03:13;;;;;;;4.90;3.60;;;;;;;2.98;83.41;94835.70;1626659;86;21003;-80
2022/04/09 07:05:40;;;;;;;5.25;3.62;;;;;;;3.01;83.17;94826.85;1599876;87;21348;-80
2022/04/09 07:08:08;;;;;;;2.67;2.40;;;;;;;2.99;83.12;94838.57;1613949;87;21034;-80
2022/04/09 07:10:38;;;;;;;3.22;2.45;;;;;;;2.90;82.56;94840.87;1615858;87;21071;-79
2022/04/09 07:13:05;;;;;;;4.10;2.42;;;;;;;2.87;82.59;94835.30;1618432;87;21166;-80
2022/04/09 07:15:32;;;;;;;2.87;2.55;;;;;;;2.82;82.69;94831.17;1621628;87;20983;-81
2022/04/09 07:17:58;;;;;;;3.95;3.58;;;;;;;2.73;82.47;94843.24;1617196;87;21381;-78
2022/04/09 07:20:23;;;;;;;2.62;2.42;;;;;;;2.73;82.80;94869.38;1616579;87;20998;-79
2022/04/09 07:22:49;;;;;;;2.77;2.42;;;;;;;2.79;82.86;94875.12;1614081;87;21047;-79
2022/04/09 07:25:16;;;;;;;3.98;3.58;;;;;;;2.79;82.71;94886.19;1617680;87;21013;-78
2022/04/09 07:27:44;;;;;;;4.67;3.42;;;;;;;2.77;82.75;94896.30;1629567;87;20991;-80
2022/04/09 07:30:13;;;;;;;5.22;4.05;;;;;;;2.78;82.62;94908.95;1625692;87;21098;-79
2022/04/09 07:32:39;;;;;;;5.42;4.50;;;;;;;2.76;82.44;94923.69;1617321;87;21004;-82
2022/04/09 07:35:06;;;;;;;6.15;4.80;;;;;;;2.76;82.49;94938.28;1617733;87;20998;-79
2022/04/09 07:37:32;;;;;;;5.08;4.50;;;;;;;2.75;82.34;94940.53;1626363;87;21022;-79
2022/04/09 07:39:57;;;;;;;4.75;4.15;;;;;;;2.74;82.04;94949.20;1615753;86;22027;-80
2022/04/09 07:42:23;;;;;;;7.10;5.00;;;;;;;2.74;82.02;94952.56;1618172;87;20964;-78
2022/04/09 07:44:49;;;;;;;5.47;4.40;;;;;;;2.71;81.83;94957.55;1624648;87;21026;-83
2022/04/09 07:47:15;;;;;;;5.55;4.95;;;;;;;2.63;81.60;94965.78;1620154;87;21124;-78
2022/04/09 07:49:44;;;;;;;6.08;5.40;;;;;;;2.56;81.82;94974.61;1624199;86;21051;-79
2022/04/09 07:52:11;;;;;;;6.53;5.58;;;;;;;2.52;81.99;94984.09;1618153;87;21268;-79
2022/04/09 07:54:38;;;;;;;6.22;5.62;;;;;;;2.51;82.13;94996.11;1615700;87;21488;-80
2022/04/09 07:57:04;;;;;;;6.70;5.75;;;;;;;2.56;82.18;95009.70;1617382;87;21011;-80
2022/04/09 07:59:30;;;;;;;6.37;5.65;;;;;;;2.51;81.83;95010.69;1619536;87;21505;-80
2022/04/09 08:01:56;;;;;;;6.40;5.35;;;;;;;2.52;82.02;95022.06;1619766;87;21009;-80
2022/04/09 08:04:21;;;;;;;7.30;6.03;;;;;;;2.53;81.83;95031.84;1616284;87;21031;-81
2022/04/09 08:06:47;;;;;;;7.33;6.53;;;;;;;2.52;81.96;95040.02;1615737;87;20975;-80
2022/04/09 08:09:13;;;;;;;7.50;6.50;;;;;;;2.54;82.04;95043.69;1618411;87;21018;-80
2022/04/09 08:11:38;;;;;;;7.60;6.45;;;;;;;2.52;82.09;95054.11;1615653;87;21422;-80
2022/04/09 08:14:04;;;;;;;6.65;5.92;;;;;;;2.52;82.51;95076.39;1624187;87;20998;-80
2022/04/09 08:16:30;;;;;;;11.10;8.38;;;;;;;2.46;83.05;95079.62;1621198;87;21063;-78
2022/04/09 08:18:57;;;;;;;9.63;8.63;;;;;;;2.43;83.64;95074.31;1613666;87;21416;-80
2022/04/09 08:21:23;;;;;;;5.12;4.62;;;;;;;2.46;83.68;95058.62;1615723;87;20986;-79
2022/04/09 08:23:48;;;;;;;9.85;8.95;;;;;;;2.51;84.17;95065.34;1614749;87;20999;-79
2022/04/09 08:26:14;;;;;;;9.75;8.48;;;;;;;2.51;84.24;95081.20;1616835;87;21457;-79
2022/04/09 08:28:40;;;;;;;7.20;6.53;;;;;;;2.56;84.87;95112.27;1615149;87;21038;-78
2022/04/09 08:31:08;;;;;;;7.95;7.17;;;;;;;2.57;85.15;95133.10;1621094;87;21003;-79
2022/04/09 08:33:34;;;;;;;7.60;6.80;;;;;;;2.57;84.87;95147.20;1616432;87;21010;-79
2022/04/09 08:36:02;;;;;;;6.83;6.12;;;;;;;2.56;85.07;95152.02;1615795;87;21355;-78
2022/04/09 08:38:28;;;;;;;8.48;6.35;;;;;;;2.51;85.04;95147.87;1618482;87;21058;-79
2022/04/09 08:40:55;;;;;;;8.10;7.22;;;;;;;2.48;85.09;95132.81;1618056;87;21385;-79
2022/04/09 08:43:21;;;;;;;10.28;7.85;;;;;;;2.49;85.33;95140.34;1587732;89;21023;-78
2022/04/09 08:45:47;;;;;;;9.33;7.72;;;;;;;2.54;85.25;95148.82;1588738;89;21091;-78
2022/04/09 08:48:12;;;;;;;12.23;8.03;;;;;;;2.60;85.18;95160.53;1585333;88;21019;-78
2022/04/09 08:50:38;;;;;;;11.35;7.03;;;;;;;2.61;85.21;95175.44;1601332;89;21098;-79
2022/04/09 08:53:07;;;;;;;10.25;7.78;;;;;;;2.57;85.79;95174.13;1581907;89;21127;-78
2022/04/09 08:55:35;;;;;;;8.65;5.97;;;;;;;2.50;85.10;95180.88;1580771;89;21072;-78
2022/04/09 08:58:01;;;;;;;7.25;6.35;;;;;;;2.51;85.25;95186.33;1590163;89;21051;-79
2022/04/09 09:00:27;;;;;;;6.55;5.87;;;;;;;2.60;85.67;95195.59;1589900;89;21055;-79
2022/04/09 09:02:55;;;;;;;6.53;5.92;;;;;;;2.65;85.55;95208.77;1601213;89;21604;-78
2022/04/09 09:05:37;;;;;;;7.33;6.17;;;;;;;2.68;85.24;95229.75;1597542;89;21080;-78
2022/04/09 09:08:04;;;;;;;7.78;6.97;;;;;;;2.73;85.22;95228.46;1590292;89;21750;-80
2022/04/09 09:10:30;;;;;;;6.55;5.55;;;;;;;2.82;85.40;95228.79;1596706;89;21024;-79
2022/04/09 09:13:01;;;;;;;10.48;8.45;;;;;;;2.92;85.65;95243.03;1592963;89;20968;-79
2022/04/09 09:15:27;;;;;;;7.08;6.37;;;;;;;3.03;85.59;95260.34;1588347;89;21002;-79
2022/04/09 09:17:57;;;;;;;13.85;10.60;;;;;;;3.11;85.38;95262.92;1589697;89;21088;-79
2022/04/09 09:20:24;;;;;;;11.88;10.30;;;;;;;3.20;85.33;95269.63;1578109;89;21082;-79
2022/04/09 09:22:50;;;;;;;13.03;11.63;;;;;;;3.25;84.97;95275.89;1592453;89;21079;-79
2022/04/09 09:25:16;;;;;;;11.22;9.58;;;;;;;3.27;85.10;95283.43;1599572;89;21077;-79
2022/04/09 09:27:42;;;;;;;130.37;76.37;;;;;;;3.31;84.56;95285.98;1598675;89;21255;-79
2022/04/09 09:30:11;;;;;;;18.90;16.52;;;;;;;3.33;84.62;95278.91;1598548;89;22153;-79
2022/04/09 09:32:41;;;;;;;10.88;7.97;;;;;;;3.32;84.66;95291.44;1601154;89;21461;-79
2022/04/09 09:35:09;;;;;;;10.60;8.23;;;;;;;3.33;84.49;95284.05;1618971;87;21369;-79
2022/04/09 09:37:37;;;;;;;8.55;7.67;;;;;;;3.34;84.31;95288.70;1622210;87;21047;-79
2022/04/09 09:40:05;;;;;;;8.20;7.40;;;;;;;3.41;84.31;95298.63;1621039;87;21427;-79
2022/04/09 09:42:33;;;;;;;8.08;6.95;;;;;;;3.50;84.63;95293.31;1615734;87;21003;-79
2022/04/09 09:44:59;;;;;;;9.48;7.40;;;;;;;3.59;84.44;95293.63;1624852;87;21401;-79
2022/04/09 09:47:24;;;;;;;16.00;13.38;;;;;;;3.70;84.71;95298.08;1621520;86;20978;-79
2022/04/09 09:49:55;;;;;;;12.13;7.58;;;;;;;3.80;85.48;95301.27;1631541;87;20986;-79
2022/04/09 09:52:32;;;;;;;9.93;7.97;;;;;;;3.79;84.02;95309.45;1615711;87;21407;-79
2022/04/09 09:55:02;;;;;;;13.00;11.10;;;;;;;3.71;83.49;95313.32;1614436;87;21060;-79
2022/04/09 09:57:29;;;;;;;16.87;13.08;;;;;;;3.69;84.14;95312.69;1617936;87;21041;-79
2022/04/09 09:59:58;;;;;;;23.80;14.05;;;;;;;3.74;84.44;95314.30;1613673;87;21466;-79
2022/04/09 10:02:25;;;;;;;11.40;8.58;;;;;;;3.75;84.46;95311.24;1628106;87;21009;-79
2022/04/09 10:04:52;;;;;;;11.53;9.50;;;;;;;3.71;83.87;95312.52;1615463;87;20979;-79
2022/04/09 10:07:19;;;;;;;13.58;11.70;;;;;;;3.73;84.47;95318.30;1612919;86;20979;-79
2022/04/09 10:09:45;;;;;;;13.70;12.07;;;;;;;3.79;85.19;95321.02;1614685;89;21034;-79
2022/04/09 10:12:20;;;;;;;14.20;10.72;;;;;;;3.82;84.84;95325.02;1615643;87;21474;-79
2022/04/09 10:14:56;;;;;;;15.58;13.38;;;;;;;3.81;84.83;95325.98;1618699;87;21024;-79
2022/04/09 10:17:23;;;;;;;17.85;14.90;;;;;;;3.83;84.75;95338.19;1619368;87;21011;-80
2022/04/09 10:19:54;;;;;;;23.73;14.53;;;;;;;3.88;84.80;95344.42;1614301;87;21023;-79
2022/04/09 10:22:34;;;;;;;86.37;32.98;;;;;;;3.95;85.11;95348.44;1614368;87;20971;-79
2022/04/09 10:25:00;;;;;;;26.60;17.05;;;;;;;4.01;85.17;95342.62;1632517;87;20983;-79
2022/04/09 10:27:40;;;;;;;24.15;15.48;;;;;;;4.04;85.00;95346.62;1640612;86;21035;-79
2022/04/09 10:30:18;;;;;;;32.95;21.12;;;;;;;4.03;84.74;95350.96;1654491;87;21034;-81
2022/04/09 10:32:47;;;;;;;20.92;18.70;;;;;;;4.03;84.83;95363.02;1640959;87;21008;-79
2022/04/09 10:35:38;;;;;;;22.10;18.45;;;;;;;4.04;85.09;95360.27;1628126;87;21364;-79
2022/04/09 10:38:15;;;;;;;24.23;19.90;;;;;;;4.03;84.90;95367.67;1631346;87;21137;-79
2022/04/09 10:40:49;;;;;;;23.22;20.70;;;;;;;3.98;84.80;95384.08;1632382;86;21057;-79
2022/04/09 10:43:28;;;;;;;30.45;20.88;;;;;;;3.95;84.59;95389.55;1644654;87;21061;-79
2022/04/09 10:46:07;;;;;;;26.50;20.20;;;;;;;3.89;84.61;95378.14;1642238;87;21001;-80
2022/04/09 10:48:42;;;;;;;35.00;23.67;;;;;;;3.96;85.05;95381.36;1639090;87;21062;-79
2022/04/09 10:51:15;;;;;;;27.75;22.73;;;;;;;4.08;85.35;95368.00;1635308;87;20995;-81
2022/04/09 10:53:49;;;;;;;28.38;23.12;;;;;;;4.16;85.02;95364.58;1628053;87;21736;-83
2022/04/09 10:56:27;;;;;;;37.63;25.50;;;;;;;4.21;85.10;95370.02;1633837;87;21046;-81
2022/04/09 10:59:16;;;;;;;34.15;24.85;;;;;;;4.26;85.12;95376.77;1629864;87;21018;-81
2022/04/09 11:01:50;;;;;;;36.63;27.82;;;;;;;4.27;85.04;95391.70;1611309;88;21080;-81
2022/04/09 11:04:37;;;;;;;30.75;25.60;;;;;;;4.29;85.31;95380.28;1639024;87;21045;-81
2022/04/09 11:07:22;;;;;;;23.00;20.57;;;;;;;4.29;85.34;95388.00;1633922;87;20995;-81
2022/04/09 11:10:00;;;;;;;29.02;23.90;;;;;;;4.24;84.67;95395.91;1634943;87;21050;-81
2022/04/09 11:12:39;;;;;;;29.67;23.55;;;;;;;4.14;84.61;95406.37;1646546;87;21055;-81
2022/04/09 11:15:08;;;;;;;27.75;21.20;;;;;;;4.09;85.07;95415.87;1649010;87;21008;-81
2022/04/09 11:17:43;;;;;;;25.65;21.23;;;;;;;4.04;84.85;95433.53;1637785;87;21417;-82
2022/04/09 11:20:16;;;;;;;25.80;22.00;;;;;;;4.02;85.11;95444.47;1643952;87;21026;-81
2022/04/09 11:22:48;;;;;;;26.73;23.10;;;;;;;4.05;85.19;95442.84;1646836;87;21183;-81
2022/04/09 11:25:25;;;;;;;35.13;26.90;;;;;;;4.09;85.05;95444.63;1633810;87;21081;-81
2022/04/09 11:27:52;;;;;;;35.75;26.27;;;;;;;4.09;85.13;95444.63;1623010;88;21061;-81
2022/04/09 11:30:18;;;;;;;25.72;21.93;;;;;;;4.08;85.14;95454.59;1646850;87;21099;-81
2022/04/09 11:32:48;;;;;;;29.35;23.80;;;;;;;4.06;85.09;95447.02;1653878;87;21046;-81
2022/04/09 11:35:15;;;;;;;28.65;23.67;;;;;;;4.09;85.30;95449.29;1649669;87;21325;-81
2022/04/09 11:37:49;;;;;;;26.02;22.77;;;;;;;4.16;85.35;95453.28;1640639;87;21042;-81